sensor_id;sensor_type;location;lat;lon;timestamp;temperature;humidity
45311;SHT31;68264;51.540;5.854;2023-06-24T00:02:49;18.3;81.1
45311;SHT31;68264;51.540;5.854;2023-06-24T00:16:48;19.1;77.6
45311;SHT31;68264;51.540;5.854;2023-06-24T00:30:47;19.3;75.7
45311;SHT31;68264;51.540;5.854;2023-06-24T00:45:15;19.2;76.6
45311;SHT31;68264;51.540;5.854;2023-06-24T01:00:36;18.7;78.9
45311;SHT31;68264;51.540;5.854;2023-06-24T01:15:35;18.1;80.3
45311;SHT31;68264;51.540;5.854;2023-06-24T01:29:35;17.5;85.1
45311;SHT31;68264;51.540;5.854;2023-06-24T01:43:34;17.1;86.1
45311;SHT31;68264;51.540;5.854;2023-06-24T01:57:33;16.9;85.6
45311;SHT31;68264;51.540;5.854;2023-06-24T02:11:32;16.8;85.6
45311;SHT31;68264;51.540;5.854;2023-06-24T02:25:31;16.5;85.8
45311;SHT31;68264;51.540;5.854;2023-06-24T02:39:30;16.3;86.2
45311;SHT31;68264;51.540;5.854;2023-06-24T02:53:29;16.1;86.3
45311;SHT31;68264;51.540;5.854;2023-06-24T03:07:28;16.0;88.0
45311;SHT31;68264;51.540;5.854;2023-06-24T03:21:27;15.8;90.1
45311;SHT31;68264;51.540;5.854;2023-06-24T03:36:59;15.9;90.1
45311;SHT31;68264;51.540;5.854;2023-06-24T03:52:58;15.8;89.9
45311;SHT31;68264;51.540;5.854;2023-06-24T04:07:17;15.8;90.2
45311;SHT31;68264;51.540;5.854;2023-06-24T04:21:45;15.9;90.4
45311;SHT31;68264;51.540;5.854;2023-06-24T04:37:06;16.0;90.2
45311;SHT31;68264;51.540;5.854;2023-06-24T04:52:34;16.2;90.9
45311;SHT31;68264;51.540;5.854;2023-06-24T05:06:54;16.6;89.5
45311;SHT31;68264;51.540;5.854;2023-06-24T05:20:53;17.1;85.5
45311;SHT31;68264;51.540;5.854;2023-06-24T05:34:52;17.8;80.6
45311;SHT31;68264;51.540;5.854;2023-06-24T05:49:52;18.6;76.2
45311;SHT31;68264;51.540;5.854;2023-06-24T06:04:52;19.2;73.9
45311;SHT31;68264;51.540;5.854;2023-06-24T06:18:51;19.7;71.5
45311;SHT31;68264;51.540;5.854;2023-06-24T06:32:50;20.2;70.7
45311;SHT31;68264;51.540;5.854;2023-06-24T06:46:49;20.8;68.0
45311;SHT31;68264;51.540;5.854;2023-06-24T07:01:17;21.5;65.6
45311;SHT31;68264;51.540;5.854;2023-06-24T07:15:36;21.8;61.3
45311;SHT31;68264;51.540;5.854;2023-06-24T07:29:35;21.9;57.5
45311;SHT31;68264;51.540;5.854;2023-06-24T07:43:34;22.4;60.1
45311;SHT31;68264;51.540;5.854;2023-06-24T07:57:33;23.3;59.4
45311;SHT31;68264;51.540;5.854;2023-06-24T08:12:34;23.7;54.7
45311;SHT31;68264;51.540;5.854;2023-06-24T08:29:38;23.7;55.0
45311;SHT31;68264;51.540;5.854;2023-06-24T08:45:39;23.9;55.1
45311;SHT31;68264;51.540;5.854;2023-06-24T09:00:07;24.1;49.7
45311;SHT31;68264;51.540;5.854;2023-06-24T09:14:26;24.3;49.6
45311;SHT31;68264;51.540;5.854;2023-06-24T09:29:26;24.8;46.8
45311;SHT31;68264;51.540;5.854;2023-06-24T09:44:26;25.0;46.0
45311;SHT31;68264;51.540;5.854;2023-06-24T09:58:25;24.9;46.7
45311;SHT31;68264;51.540;5.854;2023-06-24T10:12:53;25.7;40.4
45311;SHT31;68264;51.540;5.854;2023-06-24T10:27:12;26.0;41.4
45311;SHT31;68264;51.540;5.854;2023-06-24T10:41:11;26.9;38.6
45311;SHT31;68264;51.540;5.854;2023-06-24T10:55:39;26.5;39.2
45311;SHT31;68264;51.540;5.854;2023-06-24T11:09:59;26.7;41.2
45311;SHT31;68264;51.540;5.854;2023-06-24T11:23:58;27.5;39.8
45311;SHT31;68264;51.540;5.854;2023-06-24T11:38:26;28.2;37.3
45311;SHT31;68264;51.540;5.854;2023-06-24T11:52:45;28.0;41.8
45311;SHT31;68264;51.540;5.854;2023-06-24T12:06:44;28.2;41.8
45311;SHT31;68264;51.540;5.854;2023-06-24T12:21:12;28.8;36.7
45311;SHT31;68264;51.540;5.854;2023-06-24T12:35:32;29.6;37.6
45311;SHT31;68264;51.540;5.854;2023-06-24T12:49:31;29.8;35.2
45311;SHT31;68264;51.540;5.854;2023-06-24T13:03:30;30.4;38.8
45311;SHT31;68264;51.540;5.854;2023-06-24T13:17:29;29.6;39.7
45311;SHT31;68264;51.540;5.854;2023-06-24T13:31:28;28.9;39.7
45311;SHT31;68264;51.540;5.854;2023-06-24T13:45:27;29.8;36.7
45311;SHT31;68264;51.540;5.854;2023-06-24T13:59:26;29.9;36.9
45311;SHT31;68264;51.540;5.854;2023-06-24T14:13:25;30.0;35.9
45311;SHT31;68264;51.540;5.854;2023-06-24T14:27:53;30.9;40.5
45311;SHT31;68264;51.540;5.854;2023-06-24T14:43:13;30.9;36.6
45311;SHT31;68264;51.540;5.854;2023-06-24T14:58:13;31.6;34.9
45311;SHT31;68264;51.540;5.854;2023-06-24T15:12:12;31.5;35.4
45311;SHT31;68264;51.540;5.854;2023-06-24T15:26:11;31.6;35.7
45311;SHT31;68264;51.540;5.854;2023-06-24T15:40:10;31.6;37.6
45311;SHT31;68264;51.540;5.854;2023-06-24T15:55:10;32.5;34.3
45311;SHT31;68264;51.540;5.854;2023-06-24T16:10:10;32.4;33.6
45311;SHT31;68264;51.540;5.854;2023-06-24T16:25:10;32.7;36.0
45311;SHT31;68264;51.540;5.854;2023-06-24T16:40:39;32.8;33.0
45311;SHT31;68264;51.540;5.854;2023-06-24T16:54:58;30.8;40.1
45311;SHT31;68264;51.540;5.854;2023-06-24T17:09:58;31.1;35.7
45311;SHT31;68264;51.540;5.854;2023-06-24T17:25:27;31.7;35.3
45311;SHT31;68264;51.540;5.854;2023-06-24T17:39:47;31.0;36.0
45311;SHT31;68264;51.540;5.854;2023-06-24T17:54:47;31.3;36.6
45311;SHT31;68264;51.540;5.854;2023-06-24T18:10:15;31.2;39.9
45311;SHT31;68264;51.540;5.854;2023-06-24T18:24:35;30.9;39.4
45311;SHT31;68264;51.540;5.854;2023-06-24T18:38:34;30.7;38.9
45311;SHT31;68264;51.540;5.854;2023-06-24T18:53:02;30.2;40.8
45311;SHT31;68264;51.540;5.854;2023-06-24T19:07:50;29.6;48.0
45311;SHT31;68264;51.540;5.854;2023-06-24T19:22:09;28.6;51.8
45311;SHT31;68264;51.540;5.854;2023-06-24T19:37:10;27.2;53.9
45311;SHT31;68264;51.540;5.854;2023-06-24T19:52:09;25.7;56.6
45311;SHT31;68264;51.540;5.854;2023-06-24T20:07:42;24.2;59.6
45311;SHT31;68264;51.540;5.854;2023-06-24T20:23:11;23.1;61.6
45311;SHT31;68264;51.540;5.854;2023-06-24T20:37:10;22.3;62.0
45311;SHT31;68264;51.540;5.854;2023-06-24T20:51:10;21.6;63.0
45311;SHT31;68264;51.540;5.854;2023-06-24T21:05:38;21.1;68.8
45311;SHT31;68264;51.540;5.854;2023-06-24T21:19:57;20.7;68.6
45311;SHT31;68264;51.540;5.854;2023-06-24T21:34:57;20.3;70.4
45311;SHT31;68264;51.540;5.854;2023-06-24T21:49:57;19.8;71.3
45311;SHT31;68264;51.540;5.854;2023-06-24T22:03:56;19.5;72.2
45311;SHT31;68264;51.540;5.854;2023-06-24T22:17:55;19.2;74.7
45311;SHT31;68264;51.540;5.854;2023-06-24T22:31:54;18.9;75.8
45311;SHT31;68264;51.540;5.854;2023-06-24T22:45:53;18.7;77.1
45311;SHT31;68264;51.540;5.854;2023-06-24T22:59:52;18.5;77.6
45311;SHT31;68264;51.540;5.854;2023-06-24T23:13:51;18.2;77.9
45311;SHT31;68264;51.540;5.854;2023-06-24T23:27:50;17.9;78.1
45311;SHT31;68264;51.540;5.854;2023-06-24T23:42:18;17.8;79.0
45311;SHT31;68264;51.540;5.854;2023-06-24T23:56:37;17.6;78.9
